sensor_id;sensor_type;location;lat;lon;timestamp;temperature;humidity
39277;DHT22;63149;48.086;-1.606;2023-02-15T06:01:09;4.30;99.90
39277;DHT22;63149;48.086;-1.606;2023-02-15T06:03:37;4.20;99.90
39277;DHT22;63149;48.086;-1.606;2023-02-15T06:06:04;4.20;99.90
39277;DHT22;63149;48.086;-1.606;2023-02-15T06:08:32;4.20;99.90
39277;DHT22;63149;48.086;-1.606;2023-02-15T06:10:59;4.20;99.90
39277;DHT22;63149;48.086;-1.606;2023-02-15T06:13:26;4.20;99.90
39277;DHT22;63149;48.086;-1.606;2023-02-15T06:15:53;4.20;99.90
39277;DHT22;63149;48.086;-1.606;2023-02-15T06:18:21;4.20;99.90
39277;DHT22;63149;48.086;-1.606;2023-02-15T06:20:48;4.20;99.90
39277;DHT22;63149;48.086;-1.606;2023-02-15T06:23:15;4.20;99.90
39277;DHT22;63149;48.086;-1.606;2023-02-15T06:25:44;4.20;99.90
39277;DHT22;63149;48.086;-1.606;2023-02-15T06:28:11;4.10;99.90
39277;DHT22;63149;48.086;-1.606;2023-02-15T06:30:38;4.10;99.90
39277;DHT22;63149;48.086;-1.606;2023-02-15T06:33:05;4.10;99.90
39277;DHT22;63149;48.086;-1.606;2023-02-15T06:35:33;4.10;99.90
39277;DHT22;63149;48.086;-1.606;2023-02-15T06:38:00;4.10;99.90
39277;DHT22;63149;48.086;-1.606;2023-02-15T06:40:27;4.00;99.90
39277;DHT22;63149;48.086;-1.606;2023-02-15T06:42:54;4.00;99.90
39277;DHT22;63149;48.086;-1.606;2023-02-15T06:45:21;4.00;99.90
39277;DHT22;63149;48.086;-1.606;2023-02-15T06:47:48;4.00;99.90
39277;DHT22;63149;48.086;-1.606;2023-02-15T06:50:15;3.90;99.90
39277;DHT22;63149;48.086;-1.606;2023-02-15T06:52:43;4.00;99.90
39277;DHT22;63149;48.086;-1.606;2023-02-15T06:55:10;3.90;99.90
39277;DHT22;63149;48.086;-1.606;2023-02-15T06:57:37;3.90;99.90
39277;DHT22;63149;48.086;-1.606;2023-02-15T07:00:05;3.90;99.90
39277;DHT22;63149;48.086;-1.606;2023-02-15T07:02:33;3.80;99.90
39277;DHT22;63149;48.086;-1.606;2023-02-15T07:05:00;3.80;99.90
39277;DHT22;63149;48.086;-1.606;2023-02-15T07:07:28;3.80;99.90
39277;DHT22;63149;48.086;-1.606;2023-02-15T07:09:56;3.70;99.90
39277;DHT22;63149;48.086;-1.606;2023-02-15T07:12:23;3.70;99.90
39277;DHT22;63149;48.086;-1.606;2023-02-15T07:15:08;3.70;99.90
39277;DHT22;63149;48.086;-1.606;2023-02-15T07:17:36;3.70;99.90
39277;DHT22;63149;48.086;-1.606;2023-02-15T07:20:04;3.70;99.90
39277;DHT22;63149;48.086;-1.606;2023-02-15T07:22:33;3.70;99.90
39277;DHT22;63149;48.086;-1.606;2023-02-15T07:25:03;3.60;99.90
39277;DHT22;63149;48.086;-1.606;2023-02-15T07:30:07;3.50;99.90
39277;DHT22;63149;48.086;-1.606;2023-02-15T07:32:35;3.50;99.90
39277;DHT22;63149;48.086;-1.606;2023-02-15T07:40:14;3.50;99.90
39277;DHT22;63149;48.086;-1.606;2023-02-15T07:42:41;3.50;99.90
39277;DHT22;63149;48.086;-1.606;2023-02-15T07:45:08;3.40;99.90
39277;DHT22;63149;48.086;-1.606;2023-02-15T07:47:36;3.40;99.90
39277;DHT22;63149;48.086;-1.606;2023-02-15T08:03:01;3.40;99.90
39277;DHT22;63149;48.086;-1.606;2023-02-15T08:05:41;3.40;99.90
39277;DHT22;63149;48.086;-1.606;2023-02-15T08:21:07;3.40;99.90
39277;DHT22;63149;48.086;-1.606;2023-02-15T08:31:20;3.40;99.90
39277;DHT22;63149;48.086;-1.606;2023-02-15T08:39:02;3.50;99.90
39277;DHT22;63149;48.086;-1.606;2023-02-15T08:56:56;3.70;99.90
39277;DHT22;63149;48.086;-1.606;2023-02-15T08:59:24;3.70;99.90
39277;DHT22;63149;48.086;-1.606;2023-02-15T09:01:53;3.80;99.90
39277;DHT22;63149;48.086;-1.606;2023-02-15T09:04:21;3.80;99.90
39277;DHT22;63149;48.086;-1.606;2023-02-15T09:06:49;3.90;99.90
39277;DHT22;63149;48.086;-1.606;2023-02-15T09:09:16;3.90;99.90
39277;DHT22;63149;48.086;-1.606;2023-02-15T09:11:45;3.90;99.90
39277;DHT22;63149;48.086;-1.606;2023-02-15T09:14:16;4.00;99.90
39277;DHT22;63149;48.086;-1.606;2023-02-15T09:16:46;4.10;99.90
39277;DHT22;63149;48.086;-1.606;2023-02-15T09:19:15;4.20;99.90
39277;DHT22;63149;48.086;-1.606;2023-02-15T09:21:43;4.30;99.90
39277;DHT22;63149;48.086;-1.606;2023-02-15T09:24:12;4.30;99.90
39277;DHT22;63149;48.086;-1.606;2023-02-15T09:26:41;4.30;99.90
39277;DHT22;63149;48.086;-1.606;2023-02-15T09:29:09;4.50;99.90
39277;DHT22;63149;48.086;-1.606;2023-02-15T09:31:39;4.60;99.90
39277;DHT22;63149;48.086;-1.606;2023-02-15T09:34:10;4.70;99.90
39277;DHT22;63149;48.086;-1.606;2023-02-15T09:36:38;4.90;99.90
39277;DHT22;63149;48.086;-1.606;2023-02-15T09:39:08;5.00;99.90
39277;DHT22;63149;48.086;-1.606;2023-02-15T09:44:57;5.30;99.90
39277;DHT22;63149;48.086;-1.606;2023-02-15T09:47:49;5.40;99.90
39277;DHT22;63149;48.086;-1.606;2023-02-15T09:53:05;5.60;99.90
39277;DHT22;63149;48.086;-1.606;2023-02-15T09:55:46;5.70;99.90
39277;DHT22;63149;48.086;-1.606;2023-02-15T09:58:22;5.80;99.90
39277;DHT22;63149;48.086;-1.606;2023-02-15T10:00:55;6.00;99.90
39277;DHT22;63149;48.086;-1.606;2023-02-15T10:06:17;6.40;99.90
39277;DHT22;63149;48.086;-1.606;2023-02-15T10:11:25;7.00;99.90
39277;DHT22;63149;48.086;-1.606;2023-02-15T10:16:51;7.40;99.90
39277;DHT22;63149;48.086;-1.606;2023-02-15T10:22:08;7.60;99.90
39277;DHT22;63149;48.086;-1.606;2023-02-15T10:24:58;7.70;99.90
39277;DHT22;63149;48.086;-1.606;2023-02-15T10:27:32;8.10;99.90
39277;DHT22;63149;48.086;-1.606;2023-02-15T10:30:09;8.40;99.90
39277;DHT22;63149;48.086;-1.606;2023-02-15T10:35:18;8.90;99.90
39277;DHT22;63149;48.086;-1.606;2023-02-15T10:48:29;9.80;99.90
39277;DHT22;63149;48.086;-1.606;2023-02-15T10:51:02;9.90;99.90
39277;DHT22;63149;48.086;-1.606;2023-02-15T11:01:18;10.40;99.90
39277;DHT22;63149;48.086;-1.606;2023-02-15T11:07:03;10.70;99.90
39277;DHT22;63149;48.086;-1.606;2023-02-15T11:09:37;10.70;99.90
39277;DHT22;63149;48.086;-1.606;2023-02-15T11:12:11;10.80;99.90
39277;DHT22;63149;48.086;-1.606;2023-02-15T11:14:43;10.90;99.90
39277;DHT22;63149;48.086;-1.606;2023-02-15T11:17:15;11.20;99.90
39277;DHT22;63149;48.086;-1.606;2023-02-15T11:19:55;11.40;99.90
39277;DHT22;63149;48.086;-1.606;2023-02-15T11:22:24;11.60;99.90
39277;DHT22;63149;48.086;-1.606;2023-02-15T11:24:52;11.80;99.90
39277;DHT22;63149;48.086;-1.606;2023-02-15T11:27:21;11.80;99.90
39277;DHT22;63149;48.086;-1.606;2023-02-15T11:29:57;11.90;99.90
39277;DHT22;63149;48.086;-1.606;2023-02-15T11:32:28;11.90;99.90
39277;DHT22;63149;48.086;-1.606;2023-02-15T11:35:01;12.10;99.90
39277;DHT22;63149;48.086;-1.606;2023-02-15T11:37:36;12.10;99.90
39277;DHT22;63149;48.086;-1.606;2023-02-15T11:40:17;12.10;99.90
39277;DHT22;63149;48.086;-1.606;2023-02-15T11:42:47;12.20;99.90
39277;DHT22;63149;48.086;-1.606;2023-02-15T11:45:22;12.30;99.90
39277;DHT22;63149;48.086;-1.606;2023-02-15T11:47:52;12.40;99.90
39277;DHT22;63149;48.086;-1.606;2023-02-15T11:50:22;12.60;99.90
39277;DHT22;63149;48.086;-1.606;2023-02-15T11:52:52;12.60;99.90
39277;DHT22;63149;48.086;-1.606;2023-02-15T11:55:22;12.70;99.90
39277;DHT22;63149;48.086;-1.606;2023-02-15T11:57:53;12.90;99.90
39277;DHT22;63149;48.086;-1.606;2023-02-15T12:00:29;12.90;99.90
39277;DHT22;63149;48.086;-1.606;2023-02-15T12:03:04;13.20;99.90
39277;DHT22;63149;48.086;-1.606;2023-02-15T12:05:35;13.10;99.90
39277;DHT22;63149;48.086;-1.606;2023-02-15T12:08:12;13.40;99.90
39277;DHT22;63149;48.086;-1.606;2023-02-15T12:10:44;13.50;99.90
39277;DHT22;63149;48.086;-1.606;2023-02-15T12:13:15;13.50;99.90
39277;DHT22;63149;48.086;-1.606;2023-02-15T12:15:44;13.70;99.90
39277;DHT22;63149;48.086;-1.606;2023-02-15T12:18:34;13.80;99.90
39277;DHT22;63149;48.086;-1.606;2023-02-15T12:21:05;13.90;99.90
39277;DHT22;63149;48.086;-1.606;2023-02-15T12:23:43;14.00;99.90
39277;DHT22;63149;48.086;-1.606;2023-02-15T12:26:10;14.10;99.90
39277;DHT22;63149;48.086;-1.606;2023-02-15T12:28:40;14.20;99.90
39277;DHT22;63149;48.086;-1.606;2023-02-15T12:31:17;14.10;99.90
39277;DHT22;63149;48.086;-1.606;2023-02-15T12:33:46;14.20;99.90
39277;DHT22;63149;48.086;-1.606;2023-02-15T12:36:18;14.40;99.90
39277;DHT22;63149;48.086;-1.606;2023-02-15T12:39:09;14.50;99.90
39277;DHT22;63149;48.086;-1.606;2023-02-15T12:41:45;14.70;99.90
39277;DHT22;63149;48.086;-1.606;2023-02-15T12:44:17;15.00;99.90
39277;DHT22;63149;48.086;-1.606;2023-02-15T12:46:56;14.90;99.90
39277;DHT22;63149;48.086;-1.606;2023-02-15T12:49:23;15.00;99.90
39277;DHT22;63149;48.086;-1.606;2023-02-15T12:51:52;14.90;99.90
39277;DHT22;63149;48.086;-1.606;2023-02-15T12:54:39;14.90;99.90
39277;DHT22;63149;48.086;-1.606;2023-02-15T12:57:19;14.90;99.90
39277;DHT22;63149;48.086;-1.606;2023-02-15T12:59:49;14.90;99.90
39277;DHT22;63149;48.086;-1.606;2023-02-15T13:02:26;15.10;99.90
39277;DHT22;63149;48.086;-1.606;2023-02-15T13:04:54;15.40;99.90
39277;DHT22;63149;48.086;-1.606;2023-02-15T13:07:22;15.50;99.90
39277;DHT22;63149;48.086;-1.606;2023-02-15T13:09:51;15.40;99.90
39277;DHT22;63149;48.086;-1.606;2023-02-15T13:12:21;15.30;99.90
39277;DHT22;63149;48.086;-1.606;2023-02-15T13:14:53;15.30;99.90
39277;DHT22;63149;48.086;-1.606;2023-02-15T13:17:24;15.50;99.90
39277;DHT22;63149;48.086;-1.606;2023-02-15T13:19:57;15.40;99.90
39277;DHT22;63149;48.086;-1.606;2023-02-15T13:22:31;15.40;99.90
39277;DHT22;63149;48.086;-1.606;2023-02-15T13:25:03;15.80;99.90
39277;DHT22;63149;48.086;-1.606;2023-02-15T13:27:35;15.80;99.90
39277;DHT22;63149;48.086;-1.606;2023-02-15T13:30:14;15.60;99.90
39277;DHT22;63149;48.086;-1.606;2023-02-15T13:32:44;15.50;99.90
39277;DHT22;63149;48.086;-1.606;2023-02-15T13:35:15;15.60;99.90
39277;DHT22;63149;48.086;-1.606;2023-02-15T13:38:02;15.40;99.90
39277;DHT22;63149;48.086;-1.606;2023-02-15T13:40:38;15.40;99.90
39277;DHT22;63149;48.086;-1.606;2023-02-15T13:43:18;15.40;99.90
39277;DHT22;63149;48.086;-1.606;2023-02-15T13:45:57;15.40;99.90
39277;DHT22;63149;48.086;-1.606;2023-02-15T13:48:35;15.30;99.90
39277;DHT22;63149;48.086;-1.606;2023-02-15T13:51:12;15.40;99.90
39277;DHT22;63149;48.086;-1.606;2023-02-15T13:53:53;15.40;99.90
39277;DHT22;63149;48.086;-1.606;2023-02-15T13:56:31;15.40;99.90
39277;DHT22;63149;48.086;-1.606;2023-02-15T13:59:21;15.40;99.90
39277;DHT22;63149;48.086;-1.606;2023-02-15T14:01:56;15.30;99.90
39277;DHT22;63149;48.086;-1.606;2023-02-15T14:04:42;15.40;99.90
39277;DHT22;63149;48.086;-1.606;2023-02-15T14:07:25;15.30;99.90
39277;DHT22;63149;48.086;-1.606;2023-02-15T14:10:09;15.20;99.90
39277;DHT22;63149;48.086;-1.606;2023-02-15T14:12:54;15.20;99.90
39277;DHT22;63149;48.086;-1.606;2023-02-15T14:15:34;15.20;99.90
39277;DHT22;63149;48.086;-1.606;2023-02-15T14:18:15;15.30;99.90
39277;DHT22;63149;48.086;-1.606;2023-02-15T14:20:55;15.30;99.90
39277;DHT22;63149;48.086;-1.606;2023-02-15T14:23:33;15.30;99.90
39277;DHT22;63149;48.086;-1.606;2023-02-15T14:26:08;15.20;99.90
39277;DHT22;63149;48.086;-1.606;2023-02-15T14:28:42;15.20;99.90
39277;DHT22;63149;48.086;-1.606;2023-02-15T14:31:12;15.10;99.90
39277;DHT22;63149;48.086;-1.606;2023-02-15T14:33:41;15.00;99.90
39277;DHT22;63149;48.086;-1.606;2023-02-15T14:36:15;14.90;99.90
39277;DHT22;63149;48.086;-1.606;2023-02-15T14:38:54;14.80;99.90
39277;DHT22;63149;48.086;-1.606;2023-02-15T14:41:29;14.80;99.90
39277;DHT22;63149;48.086;-1.606;2023-02-15T14:44:04;14.80;99.90
39277;DHT22;63149;48.086;-1.606;2023-02-15T14:46:39;14.80;99.90
39277;DHT22;63149;48.086;-1.606;2023-02-15T14:49:10;14.70;99.90
39277;DHT22;63149;48.086;-1.606;2023-02-15T14:51:57;14.70;99.90
39277;DHT22;63149;48.086;-1.606;2023-02-15T14:54:56;14.60;99.90
39277;DHT22;63149;48.086;-1.606;2023-02-15T14:57:27;14.60;99.90
39277;DHT22;63149;48.086;-1.606;2023-02-15T14:59:59;14.50;99.90
39277;DHT22;63149;48.086;-1.606;2023-02-15T15:02:41;14.50;99.90
39277;DHT22;63149;48.086;-1.606;2023-02-15T15:05:14;14.50;99.90
39277;DHT22;63149;48.086;-1.606;2023-02-15T15:07:45;14.50;99.90
39277;DHT22;63149;48.086;-1.606;2023-02-15T15:10:35;14.50;99.90
39277;DHT22;63149;48.086;-1.606;2023-02-15T15:13:37;14.40;99.90
39277;DHT22;63149;48.086;-1.606;2023-02-15T15:19:11;14.40;99.90
39277;DHT22;63149;48.086;-1.606;2023-02-15T15:22:02;14.40;99.90
39277;DHT22;63149;48.086;-1.606;2023-02-15T15:24:52;14.40;99.90
39277;DHT22;63149;48.086;-1.606;2023-02-15T15:27:42;14.40;99.90
39277;DHT22;63149;48.086;-1.606;2023-02-15T15:34:04;14.40;99.90
39277;DHT22;63149;48.086;-1.606;2023-02-15T15:40:12;14.30;99.90
39277;DHT22;63149;48.086;-1.606;2023-02-15T15:42:50;14.30;99.90
39277;DHT22;63149;48.086;-1.606;2023-02-15T15:45:54;14.30;99.90
39277;DHT22;63149;48.086;-1.606;2023-02-15T15:48:29;14.30;99.90
39277;DHT22;63149;48.086;-1.606;2023-02-15T15:51:00;14.30;99.90
39277;DHT22;63149;48.086;-1.606;2023-02-15T15:53:31;14.20;99.90
39277;DHT22;63149;48.086;-1.606;2023-02-15T15:56:04;14.20;99.90
39277;DHT22;63149;48.086;-1.606;2023-02-15T15:58:33;14.20;99.90
39277;DHT22;63149;48.086;-1.606;2023-02-15T16:01:04;14.10;99.90
39277;DHT22;63149;48.086;-1.606;2023-02-15T16:03:34;14.20;99.90
39277;DHT22;63149;48.086;-1.606;2023-02-15T16:06:01;14.10;99.90
39277;DHT22;63149;48.086;-1.606;2023-02-15T16:08:31;14.00;99.90
39277;DHT22;63149;48.086;-1.606;2023-02-15T16:11:00;14.00;99.90
39277;DHT22;63149;48.086;-1.606;2023-02-15T16:13:28;14.00;99.90
39277;DHT22;63149;48.086;-1.606;2023-02-15T16:15:56;14.00;99.90
39277;DHT22;63149;48.086;-1.606;2023-02-15T16:18:25;13.90;99.90
39277;DHT22;63149;48.086;-1.606;2023-02-15T16:20:54;13.90;99.90
39277;DHT22;63149;48.086;-1.606;2023-02-15T16:23:50;13.90;99.90
39277;DHT22;63149;48.086;-1.606;2023-02-15T16:26:40;13.80;99.90
39277;DHT22;63149;48.086;-1.606;2023-02-15T16:29:15;13.80;99.90
39277;DHT22;63149;48.086;-1.606;2023-02-15T16:31:42;13.80;99.90
39277;DHT22;63149;48.086;-1.606;2023-02-15T16:34:16;13.80;99.90
39277;DHT22;63149;48.086;-1.606;2023-02-15T16:36:43;13.70;99.90
39277;DHT22;63149;48.086;-1.606;2023-02-15T16:39:18;13.70;99.90
39277;DHT22;63149;48.086;-1.606;2023-02-15T16:41:47;13.70;99.90
39277;DHT22;63149;48.086;-1.606;2023-02-15T16:44:17;13.70;99.90
39277;DHT22;63149;48.086;-1.606;2023-02-15T16:46:47;13.60;99.90
39277;DHT22;63149;48.086;-1.606;2023-02-15T16:49:17;13.60;99.90
39277;DHT22;63149;48.086;-1.606;2023-02-15T16:51:54;13.50;99.90
39277;DHT22;63149;48.086;-1.606;2023-02-15T16:54:23;13.50;99.90
39277;DHT22;63149;48.086;-1.606;2023-02-15T16:56:52;13.50;99.90
39277;DHT22;63149;48.086;-1.606;2023-02-15T16:59:29;13.40;99.90
39277;DHT22;63149;48.086;-1.606;2023-02-15T17:01:58;13.40;99.90
39277;DHT22;63149;48.086;-1.606;2023-02-15T17:04:30;13.30;99.90
39277;DHT22;63149;48.086;-1.606;2023-02-15T17:06:59;13.30;99.90
39277;DHT22;63149;48.086;-1.606;2023-02-15T17:09:26;13.20;99.90
39277;DHT22;63149;48.086;-1.606;2023-02-15T17:11:55;13.20;99.90
39277;DHT22;63149;48.086;-1.606;2023-02-15T17:14:27;13.10;99.90
39277;DHT22;63149;48.086;-1.606;2023-02-15T17:16:59;13.10;99.90
39277;DHT22;63149;48.086;-1.606;2023-02-15T17:19:28;13.00;99.90
39277;DHT22;63149;48.086;-1.606;2023-02-15T17:21:57;13.00;99.90
39277;DHT22;63149;48.086;-1.606;2023-02-15T17:24:32;13.00;99.90
39277;DHT22;63149;48.086;-1.606;2023-02-15T17:27:04;12.90;99.90
39277;DHT22;63149;48.086;-1.606;2023-02-15T17:29:35;12.80;99.90
39277;DHT22;63149;48.086;-1.606;2023-02-15T17:32:03;12.80;99.90
39277;DHT22;63149;48.086;-1.606;2023-02-15T17:37:32;12.60;99.90
39277;DHT22;63149;48.086;-1.606;2023-02-15T17:40:18;12.50;99.90
39277;DHT22;63149;48.086;-1.606;2023-02-15T17:42:47;12.50;99.90
39277;DHT22;63149;48.086;-1.606;2023-02-15T17:45:15;12.40;99.90
39277;DHT22;63149;48.086;-1.606;2023-02-15T17:47:42;12.40;99.90
39277;DHT22;63149;48.086;-1.606;2023-02-15T17:50:17;12.30;99.90
39277;DHT22;63149;48.086;-1.606;2023-02-15T17:52:45;12.30;99.90
39277;DHT22;63149;48.086;-1.606;2023-02-15T17:55:14;12.20;99.90
39277;DHT22;63149;48.086;-1.606;2023-02-15T17:58:01;12.20;99.90
39277;DHT22;63149;48.086;-1.606;2023-02-15T18:00:29;12.10;99.90
39277;DHT22;63149;48.086;-1.606;2023-02-15T18:03:13;12.10;99.90
39277;DHT22;63149;48.086;-1.606;2023-02-15T18:05:58;12.00;99.90
39277;DHT22;63149;48.086;-1.606;2023-02-15T18:08:43;11.90;99.90
39277;DHT22;63149;48.086;-1.606;2023-02-15T18:11:27;11.80;99.90
39277;DHT22;63149;48.086;-1.606;2023-02-15T18:14:07;11.80;99.90
39277;DHT22;63149;48.086;-1.606;2023-02-15T18:16:36;11.80;99.90
39277;DHT22;63149;48.086;-1.606;2023-02-15T18:19:04;11.70;99.90
39277;DHT22;63149;48.086;-1.606;2023-02-15T18:21:31;11.70;99.90
39277;DHT22;63149;48.086;-1.606;2023-02-15T18:23:58;11.70;99.90
39277;DHT22;63149;48.086;-1.606;2023-02-15T18:26:26;11.60;99.90
39277;DHT22;63149;48.086;-1.606;2023-02-15T18:28:54;11.60;99.90
39277;DHT22;63149;48.086;-1.606;2023-02-15T18:31:23;11.60;99.90
39277;DHT22;63149;48.086;-1.606;2023-02-15T18:33:52;11.50;99.90
39277;DHT22;63149;48.086;-1.606;2023-02-15T18:36:23;11.50;99.90
39277;DHT22;63149;48.086;-1.606;2023-02-15T18:38:52;11.40;99.90
39277;DHT22;63149;48.086;-1.606;2023-02-15T18:41:21;11.40;99.90
39277;DHT22;63149;48.086;-1.606;2023-02-15T18:43:49;11.40;99.90
39277;DHT22;63149;48.086;-1.606;2023-02-15T18:46:18;11.30;99.90
39277;DHT22;63149;48.086;-1.606;2023-02-15T18:48:48;11.30;99.90
39277;DHT22;63149;48.086;-1.606;2023-02-15T18:51:19;11.30;99.90
39277;DHT22;63149;48.086;-1.606;2023-02-15T18:53:46;11.30;99.90
39277;DHT22;63149;48.086;-1.606;2023-02-15T18:56:15;11.20;99.90
39277;DHT22;63149;48.086;-1.606;2023-02-15T18:58:43;11.20;99.90
39277;DHT22;63149;48.086;-1.606;2023-02-15T19:01:13;11.20;99.90
39277;DHT22;63149;48.086;-1.606;2023-02-15T19:03:45;11.10;99.90
39277;DHT22;63149;48.086;-1.606;2023-02-15T19:06:14;11.10;99.90
39277;DHT22;63149;48.086;-1.606;2023-02-15T19:08:44;11.00;99.90
39277;DHT22;63149;48.086;-1.606;2023-02-15T19:11:14;11.00;99.90
39277;DHT22;63149;48.086;-1.606;2023-02-15T19:13:41;10.90;99.90
39277;DHT22;63149;48.086;-1.606;2023-02-15T19:16:18;10.90;99.90
39277;DHT22;63149;48.086;-1.606;2023-02-15T19:18:48;10.90;99.90
39277;DHT22;63149;48.086;-1.606;2023-02-15T19:21:16;10.90;99.90
39277;DHT22;63149;48.086;-1.606;2023-02-15T19:23:52;10.80;99.90
39277;DHT22;63149;48.086;-1.606;2023-02-15T19:26:19;10.80;99.90
39277;DHT22;63149;48.086;-1.606;2023-02-15T19:28:46;10.80;99.90
39277;DHT22;63149;48.086;-1.606;2023-02-15T19:31:13;10.70;99.90
39277;DHT22;63149;48.086;-1.606;2023-02-15T19:33:42;10.60;99.90
39277;DHT22;63149;48.086;-1.606;2023-02-15T19:36:16;10.60;99.90
39277;DHT22;63149;48.086;-1.606;2023-02-15T19:38:46;10.60;99.90
39277;DHT22;63149;48.086;-1.606;2023-02-15T19:41:18;10.50;99.90
39277;DHT22;63149;48.086;-1.606;2023-02-15T19:43:49;10.60;99.90
39277;DHT22;63149;48.086;-1.606;2023-02-15T19:46:20;10.50;99.90
39277;DHT22;63149;48.086;-1.606;2023-02-15T19:48:48;10.50;99.90
39277;DHT22;63149;48.086;-1.606;2023-02-15T19:51:17;10.50;99.90
39277;DHT22;63149;48.086;-1.606;2023-02-15T19:53:45;10.50;99.90
39277;DHT22;63149;48.086;-1.606;2023-02-15T19:56:16;10.50;99.90
39277;DHT22;63149;48.086;-1.606;2023-02-15T19:58:43;10.50;99.90
39277;DHT22;63149;48.086;-1.606;2023-02-15T20:01:10;10.50;99.90
39277;DHT22;63149;48.086;-1.606;2023-02-15T20:03:37;10.40;99.90
39277;DHT22;63149;48.086;-1.606;2023-02-15T20:06:05;10.40;99.90
39277;DHT22;63149;48.086;-1.606;2023-02-15T20:08:33;10.40;99.90
39277;DHT22;63149;48.086;-1.606;2023-02-15T20:11:00;10.40;99.90
39277;DHT22;63149;48.086;-1.606;2023-02-15T20:13:27;10.40;99.90
39277;DHT22;63149;48.086;-1.606;2023-02-15T20:15:54;10.40;99.90
39277;DHT22;63149;48.086;-1.606;2023-02-15T20:18:21;10.40;99.90
39277;DHT22;63149;48.086;-1.606;2023-02-15T20:20:50;10.40;99.90
39277;DHT22;63149;48.086;-1.606;2023-02-15T20:23:20;10.40;99.90
39277;DHT22;63149;48.086;-1.606;2023-02-15T20:25:49;10.40;99.90
39277;DHT22;63149;48.086;-1.606;2023-02-15T20:28:18;10.40;99.90
39277;DHT22;63149;48.086;-1.606;2023-02-15T20:30:46;10.50;99.90
39277;DHT22;63149;48.086;-1.606;2023-02-15T20:33:13;10.40;99.90
39277;DHT22;63149;48.086;-1.606;2023-02-15T20:35:41;10.50;99.90
39277;DHT22;63149;48.086;-1.606;2023-02-15T20:38:17;10.50;99.90
39277;DHT22;63149;48.086;-1.606;2023-02-15T20:40:46;10.40;99.90
39277;DHT22;63149;48.086;-1.606;2023-02-15T20:43:31;10.40;99.90
39277;DHT22;63149;48.086;-1.606;2023-02-15T20:45:59;10.50;99.90
39277;DHT22;63149;48.086;-1.606;2023-02-15T20:48:27;10.40;99.90
39277;DHT22;63149;48.086;-1.606;2023-02-15T20:50:55;10.50;99.90
39277;DHT22;63149;48.086;-1.606;2023-02-15T20:53:24;10.40;99.90
39277;DHT22;63149;48.086;-1.606;2023-02-15T20:55:51;10.50;99.90
39277;DHT22;63149;48.086;-1.606;2023-02-15T20:58:20;10.50;99.90
39277;DHT22;63149;48.086;-1.606;2023-02-15T21:00:50;10.50;99.90
39277;DHT22;63149;48.086;-1.606;2023-02-15T21:03:20;10.50;99.90
39277;DHT22;63149;48.086;-1.606;2023-02-15T21:05:48;10.50;99.90
39277;DHT22;63149;48.086;-1.606;2023-02-15T21:08:17;10.50;99.90
39277;DHT22;63149;48.086;-1.606;2023-02-15T21:10:45;10.50;99.90
39277;DHT22;63149;48.086;-1.606;2023-02-15T21:13:19;10.40;99.90
39277;DHT22;63149;48.086;-1.606;2023-02-15T21:15:49;10.40;99.90
39277;DHT22;63149;48.086;-1.606;2023-02-15T21:18:20;10.40;99.90
39277;DHT22;63149;48.086;-1.606;2023-02-15T21:20:49;10.50;99.90
39277;DHT22;63149;48.086;-1.606;2023-02-15T21:23:20;10.40;99.90
39277;DHT22;63149;48.086;-1.606;2023-02-15T21:25:48;10.40;99.90
39277;DHT22;63149;48.086;-1.606;2023-02-15T21:28:17;10.50;99.90
39277;DHT22;63149;48.086;-1.606;2023-02-15T21:30:45;10.50;99.90
39277;DHT22;63149;48.086;-1.606;2023-02-15T21:33:14;10.50;99.90
39277;DHT22;63149;48.086;-1.606;2023-02-15T21:35:41;10.50;99.90
39277;DHT22;63149;48.086;-1.606;2023-02-15T21:38:12;10.50;99.90
39277;DHT22;63149;48.086;-1.606;2023-02-15T21:40:41;10.40;99.90
39277;DHT22;63149;48.086;-1.606;2023-02-15T21:43:13;10.40;99.90
39277;DHT22;63149;48.086;-1.606;2023-02-15T21:45:57;10.40;99.90
39277;DHT22;63149;48.086;-1.606;2023-02-15T21:48:43;10.40;99.90
39277;DHT22;63149;48.086;-1.606;2023-02-15T21:51:11;10.40;99.90
39277;DHT22;63149;48.086;-1.606;2023-02-15T21:53:55;10.40;99.90
39277;DHT22;63149;48.086;-1.606;2023-02-15T21:56:22;10.40;99.90
39277;DHT22;63149;48.086;-1.606;2023-02-15T21:58:49;10.30;99.90
39277;DHT22;63149;48.086;-1.606;2023-02-15T22:01:22;10.40;99.90
39277;DHT22;63149;48.086;-1.606;2023-02-15T22:03:52;10.30;99.90
39277;DHT22;63149;48.086;-1.606;2023-02-15T22:06:19;10.30;99.90
39277;DHT22;63149;48.086;-1.606;2023-02-15T22:08:46;10.30;99.90
39277;DHT22;63149;48.086;-1.606;2023-02-15T22:11:14;10.30;99.90
39277;DHT22;63149;48.086;-1.606;2023-02-15T22:13:43;10.30;99.90
39277;DHT22;63149;48.086;-1.606;2023-02-15T22:16:14;10.20;99.90
39277;DHT22;63149;48.086;-1.606;2023-02-15T22:18:41;10.20;99.90
39277;DHT22;63149;48.086;-1.606;2023-02-15T22:21:10;10.20;99.90
39277;DHT22;63149;48.086;-1.606;2023-02-15T22:23:37;10.20;99.90
39277;DHT22;63149;48.086;-1.606;2023-02-15T22:26:06;10.20;99.90
39277;DHT22;63149;48.086;-1.606;2023-02-15T22:28:36;10.10;99.90
39277;DHT22;63149;48.086;-1.606;2023-02-15T22:31:06;10.10;99.90
39277;DHT22;63149;48.086;-1.606;2023-02-15T22:33:36;10.10;99.90
39277;DHT22;63149;48.086;-1.606;2023-02-15T22:36:03;10.10;99.90
39277;DHT22;63149;48.086;-1.606;2023-02-15T22:38:31;10.10;99.90
39277;DHT22;63149;48.086;-1.606;2023-02-15T22:41:00;10.10;99.90
39277;DHT22;63149;48.086;-1.606;2023-02-15T22:43:34;10.00;99.90
39277;DHT22;63149;48.086;-1.606;2023-02-15T22:46:04;10.00;99.90
39277;DHT22;63149;48.086;-1.606;2023-02-15T22:48:31;10.00;99.90
39277;DHT22;63149;48.086;-1.606;2023-02-15T22:50:58;10.00;99.90
39277;DHT22;63149;48.086;-1.606;2023-02-15T22:53:25;10.00;99.90
39277;DHT22;63149;48.086;-1.606;2023-02-15T22:55:54;10.00;99.90
39277;DHT22;63149;48.086;-1.606;2023-02-15T22:58:24;10.00;99.90
39277;DHT22;63149;48.086;-1.606;2023-02-15T23:00:52;10.00;99.90
39277;DHT22;63149;48.086;-1.606;2023-02-15T23:03:22;9.90;99.90
39277;DHT22;63149;48.086;-1.606;2023-02-15T23:05:49;9.90;99.90
39277;DHT22;63149;48.086;-1.606;2023-02-15T23:08:16;9.90;99.90
39277;DHT22;63149;48.086;-1.606;2023-02-15T23:10:45;10.00;99.90
39277;DHT22;63149;48.086;-1.606;2023-02-15T23:13:17;10.00;99.90
39277;DHT22;63149;48.086;-1.606;2023-02-15T23:15:49;9.90;99.90
39277;DHT22;63149;48.086;-1.606;2023-02-15T23:18:20;10.00;99.90
39277;DHT22;63149;48.086;-1.606;2023-02-15T23:20:50;10.00;99.90
39277;DHT22;63149;48.086;-1.606;2023-02-15T23:23:21;9.90;99.90
39277;DHT22;63149;48.086;-1.606;2023-02-15T23:25:49;9.90;99.90
39277;DHT22;63149;48.086;-1.606;2023-02-15T23:28:21;9.90;99.90
39277;DHT22;63149;48.086;-1.606;2023-02-15T23:30:49;9.90;99.90
39277;DHT22;63149;48.086;-1.606;2023-02-15T23:33:19;9.90;99.90
39277;DHT22;63149;48.086;-1.606;2023-02-15T23:35:47;10.00;99.90
39277;DHT22;63149;48.086;-1.606;2023-02-15T23:38:23;9.90;99.90
39277;DHT22;63149;48.086;-1.606;2023-02-15T23:40:56;10.00;99.90
39277;DHT22;63149;48.086;-1.606;2023-02-15T23:43:45;9.90;99.90
39277;DHT22;63149;48.086;-1.606;2023-02-15T23:46:25;9.90;99.90